Terminal Aerodrome Forecast
Issued by NWS Anchorage, AK

Home | Current Version | Previous Version | Text Only | Print | Product List | Glossary On
Versions: 1 2 3 4 5 6 7 8 9 10 11 12 13 14 15 16 17 18 19 20 21 22 23 24 25 26 27 28 29 30 31 32 33 34 35 36 37 38 39 40 41 42 43 44
000
FTAK31 PANC 180532
TAFANC
TAF
PANC 180532Z 1806/1912 04011KT P6SM VCSH SCT050 OVC080
      WS020/12040KT
      TEMPO 1806/1808 17010G20KT
     FM181200 33010KT P6SM SCT050 OVC090 WS020/12040KT
     FM190000 15015G25KT P6SM SCT050 OVC090
     FM190900 15015G25KT P6SM -SHRA SCT025 OVC040=

USA.gov is the U.S. government's official web portal to all federal, state and local government web resources and services.